Time;durP1;ratioP1;P1;durP2;ratioP2;P2;SDS_P1;SDS_P2;PMS_P1;PMS_P2;Temp;Humidity;BMP_temperature;BMP_pressure;BME280_temperature;BME280_humidity;BME280_pressure;Samples;Min_cycle;Max_cycle;Signal;HPM_P1;HPM_P2
2024/01/10 00:21:50;;;;;;;;;;;;;;;;;;;;;
2024/01/10 00:25:03;;;;;;;26.60;17.17;;;;;;;-2.97;69.27;95632.59;4939670;29;20204;-87
2024/01/10 00:35:09;;;;;;;;;;;;;;;;;;;;;
2024/01/10 00:51:01;;;;;;;24.93;15.43;;;;;;;-2.65;68.63;95587.78;4949256;28;20325;-87
2024/01/10 01:03:14;;;;;;;26.03;15.83;;;;;;;-2.55;68.80;95600.63;4925022;29;20296;-86
2024/01/10 01:06:48;;;;;;;27.73;16.90;;;;;;;-2.57;68.79;95608.28;4922348;29;20238;-87
2024/01/10 01:19:49;;;;;;;27.63;16.77;;;;;;;-2.63;68.92;95631.34;4885317;28;20214;-86
2024/01/10 01:29:18;;;;;;;27.73;16.67;;;;;;;-2.64;69.55;95651.59;4891341;29;20203;-86
2024/01/10 01:39:12;;;;;;;;;;;;;;;;;;;;;
2024/01/10 01:41:50;;;;;;;27.33;15.73;;;;;;;-2.66;70.47;95717.19;4935365;28;20211;-87
2024/01/10 01:45:00;;;;;;;27.37;17.10;;;;;;;-2.71;70.76;95729.28;4952177;29;20226;-87
2024/01/10 01:51:59;;;;;;;24.47;14.10;;;;;;;-2.83;71.65;95750.16;4918190;29;20715;-87
2024/01/10 01:54:32;;;;;;;24.47;15.40;;;;;;;-2.86;71.69;95773.81;4938730;29;20239;-87
2024/01/10 01:59:54;;;;;;;26.90;15.63;;;;;;;-2.90;71.71;95777.44;4941334;28;20682;-86
2024/01/10 02:02:29;;;;;;;28.23;15.60;;;;;;;-2.92;72.06;95780.94;4951816;29;20243;-86
2024/01/10 02:08:54;;;;;;;27.03;16.70;;;;;;;-2.90;72.43;95795.06;4942127;29;20268;-87
2024/01/10 02:15:22;;;;;;;23.83;15.13;;;;;;;-2.76;72.60;95819.44;4828016;29;20741;-87
2024/01/10 02:18:23;;;;;;;30.57;16.33;;;;;;;-2.73;72.53;95796.59;4844697;29;20306;-86
2024/01/10 02:21:18;;;;;;;25.93;15.73;;;;;;;-2.71;72.43;95802.34;4951346;29;20241;-86
2024/01/10 02:28:12;;;;;;;25.70;14.97;;;;;;;-2.73;72.31;95795.78;4883463;29;20302;-87
2024/01/10 02:34:56;;;;;;;26.10;15.93;;;;;;;-2.71;72.23;95807.38;4909352;29;20325;-87
2024/01/10 02:44:24;;;;;;;24.33;16.23;;;;;;;-2.83;73.14;95826.53;4910091;29;20210;-87
2024/01/10 02:54:53;;;;;;;;;;;;;;;;;;;;;
2024/01/10 03:07:24;;;;;;;;;;;;;;;;;;;;;
2024/01/10 03:10:29;;;;;;;;;;;;;;;;;;;;;
2024/01/10 03:13:34;;;;;;;30.03;17.10;;;;;;;-2.91;74.17;95858.94;4951340;29;20658;-87
2024/01/10 03:16:22;;;;;;;27.00;16.27;;;;;;;-2.88;74.22;95860.44;4948345;29;20258;-87
2024/01/10 03:22:47;;;;;;;25.97;16.27;;;;;;;-2.83;74.11;95853.44;4885681;29;20217;-87
2024/01/10 03:25:40;;;;;;;;;;;;;;;;;;;;;
2024/01/10 03:32:36;;;;;;;;;;;;;;;;;;;;;
2024/01/10 03:35:27;;;;;;;27.20;16.73;;;;;;;-2.85;73.84;95825.00;4931105;29;20229;-87
2024/01/10 03:48:38;;;;;;;;;;;;;;;;;;;;;
2024/01/10 03:51:07;;;;;;;28.00;17.03;;;;;;;-2.91;74.96;95869.00;4834257;29;20208;-87
2024/01/10 03:53:45;;;;;;;;;;;;;;;;;;;;;
2024/01/10 03:56:43;;;;;;;32.80;18.93;;;;;;;-2.85;74.36;95858.56;4947663;28;20403;-86
2024/01/10 04:06:18;;;;;;;29.20;16.47;;;;;;;-3.03;75.95;95892.34;4875345;29;20237;-86
2024/01/10 04:12:54;;;;;;;;;;;;;;;;;;;;;
2024/01/10 04:19:40;;;;;;;31.20;18.33;;;;;;;-2.85;75.15;95845.97;4877294;29;20211;-87
2024/01/10 04:28:25;;;;;;;32.00;18.07;;;;;;;-2.76;75.39;95899.25;4895651;29;20852;-87
2024/01/10 04:34:39;;;;;;;33.03;18.60;;;;;;;-2.80;75.83;95889.34;4889537;29;20205;-87
2024/01/10 04:47:32;;;;;;;30.80;17.57;;;;;;;-2.95;77.03;95938.09;4900710;28;20266;-90
2024/01/10 04:50:22;;;;;;;32.70;17.77;;;;;;;-2.90;77.07;95938.63;4926694;28;20275;-87
2024/01/10 04:53:01;;;;;;;29.40;17.23;;;;;;;-2.88;76.68;95921.69;4946736;29;20588;-88
2024/01/10 05:02:10;;;;;;;32.00;18.93;;;;;;;-2.83;76.27;95904.63;4886401;29;20217;-89
2024/01/10 05:05:09;;;;;;;;;;;;;;;;;;;;;
2024/01/10 05:07:58;;;;;;;32.67;17.87;;;;;;;-2.96;77.65;95963.34;4950154;29;20193;-89
2024/01/10 05:10:41;;;;;;;34.50;18.80;;;;;;;-3.01;77.91;95973.66;4922843;29;20291;-89
2024/01/10 05:13:30;;;;;;;33.00;19.03;;;;;;;-3.04;78.06;95973.84;4953495;29;20578;-88
2024/01/10 05:16:22;;;;;;;29.40;17.83;;;;;;;-3.00;78.38;95987.88;4948285;29;20610;-89
2024/01/10 05:19:05;;;;;;;33.33;18.23;;;;;;;-2.89;77.87;95977.25;4951445;29;20629;-86
2024/01/10 05:27:36;;;;;;;29.57;17.10;;;;;;;-2.85;77.82;95976.97;4937382;28;20208;-86
2024/01/10 05:30:26;;;;;;;30.57;17.47;;;;;;;-2.75;80.36;96069.69;4951619;28;20232;-89
2024/01/10 05:36:40;;;;;;;29.70;17.77;;;;;;;-2.76;77.29;95942.91;4928896;29;20247;-89
2024/01/10 05:39:28;;;;;;;35.03;18.37;;;;;;;-2.82;77.52;95959.16;4952056;29;20782;-88
2024/01/10 05:48:23;;;;;;;29.43;17.67;;;;;;;-2.76;76.99;95939.56;4947915;28;20213;-89
2024/01/10 05:51:23;;;;;;;32.80;18.43;;;;;;;-2.76;76.50;95940.38;4870963;29;20210;-89
2024/01/10 05:54:23;;;;;;;30.60;17.27;;;;;;;-2.81;76.68;95939.81;4872702;29;20250;-88
2024/01/10 05:56:51;;;;;;;28.00;17.67;;;;;;;-2.95;77.53;95954.91;4875510;29;20694;-90
2024/01/10 05:59:52;;;;;;;30.80;18.07;;;;;;;-2.97;77.51;95974.31;4868003;29;20210;-89
2024/01/10 06:02:19;;;;;;;28.33;16.17;;;;;;;-3.04;77.72;95988.13;4860155;29;20215;-89
2024/01/10 06:04:52;;;;;;;32.47;18.03;;;;;;;-3.10;78.50;96008.63;4902463;29;20244;-89
2024/01/10 06:07:42;;;;;;;32.10;16.90;;;;;;;-3.33;80.22;96061.03;4933109;29;20208;-90
2024/01/10 06:16:52;;;;;;;29.23;17.07;;;;;;;-3.02;79.42;96046.78;4939784;28;20227;-87
2024/01/10 06:19:41;;;;;;;27.27;16.40;;;;;;;-2.83;78.38;96009.63;4910282;29;20235;-88
2024/01/10 06:22:09;;;;;;;28.50;16.10;;;;;;;-2.83;77.50;95981.91;4950356;29;20197;-89
2024/01/10 06:24:37;;;;;;;28.43;16.50;;;;;;;-2.76;77.20;95972.31;4947862;29;20207;-90
2024/01/10 06:27:06;;;;;;;29.07;16.97;;;;;;;-2.68;76.61;95958.38;5011506;23;20603;-88
2024/01/10 06:29:38;;;;;;;27.13;15.97;;;;;;;-2.62;75.94;95927.78;4967741;28;20243;-89
2024/01/10 06:32:25;;;;;;;27.67;15.77;;;;;;;-2.61;75.30;95906.72;4996496;28;20226;-88
2024/01/10 06:34:52;;;;;;;26.83;16.10;;;;;;;-2.62;75.21;95897.56;4986395;28;20254;-88
2024/01/10 06:37:21;;;;;;;25.93;15.23;;;;;;;-2.62;75.22;95889.19;4970420;28;20335;-87
2024/01/10 06:40:00;;;;;;;38.17;23.03;;;;;;;-2.59;74.96;95884.78;4970696;28;20210;-88
2024/01/10 06:42:39;;;;;;;34.00;21.30;;;;;;;-2.60;74.75;95883.16;4972430;28;20224;-89
2024/01/10 06:48:38;;;;;;;30.53;17.93;;;;;;;-2.82;75.54;95881.06;4893443;29;20755;-89
2024/01/10 06:51:26;;;;;;;26.80;16.03;;;;;;;-2.82;75.25;95891.13;4916632;28;20250;-88
2024/01/10 06:54:00;;;;;;;52.87;28.43;;;;;;;-2.87;75.76;95915.78;4962639;28;20215;-90
2024/01/10 06:59:15;;;;;;;28.93;16.03;;;;;;;-2.81;75.10;95897.78;4968978;28;20243;-87
2024/01/10 07:02:39;;;;;;;27.50;16.13;;;;;;;-2.79;74.89;95896.00;4960787;28;20283;-90
2024/01/10 07:09:02;;;;;;;28.07;16.60;;;;;;;-2.72;74.61;95885.59;4970301;28;20311;-90
2024/01/10 07:15:06;;;;;;;27.20;16.30;;;;;;;-2.83;75.37;95903.81;4860385;29;20703;-90
2024/01/10 07:21:42;;;;;;;25.40;15.10;;;;;;;-2.89;75.32;95924.34;4897219;29;20579;-89
2024/01/10 07:27:30;;;;;;;31.67;16.63;;;;;;;-2.79;75.43;95940.53;4973829;28;20223;-86
2024/01/10 07:29:57;;;;;;;28.77;16.27;;;;;;;-2.74;75.11;95933.53;4976152;28;20215;-83
2024/01/10 07:32:49;;;;;;;35.30;17.93;;;;;;;-2.70;74.97;95926.63;4975737;28;20543;-87
2024/01/10 07:35:34;;;;;;;32.07;17.13;;;;;;;-2.71;75.19;95935.09;4898966;29;20322;-87
2024/01/10 07:38:19;;;;;;;33.47;17.10;;;;;;;-2.66;74.97;95926.34;4970908;28;20207;-86
2024/01/10 07:40:55;;;;;;;29.40;17.23;;;;;;;-2.62;74.66;95921.94;4989620;28;20217;-89
2024/01/10 07:46:54;;;;;;;28.63;16.47;;;;;;;-2.56;74.09;95899.72;4901657;28;20239;-82
2024/01/10 07:49:42;;;;;;;68.10;40.00;;;;;;;-2.63;74.28;95908.53;4979629;28;20206;-86
2024/01/10 07:52:21;;;;;;;;;;;;;;;;;;;;;
2024/01/10 07:54:54;;;;;;;31.67;17.23;;;;;;;-2.89;74.55;95910.03;4971298;28;20218;-87
2024/01/10 07:57:20;;;;;;;30.33;18.10;;;;;;;-2.71;74.91;95938.41;4971192;28;20594;-87
2024/01/10 08:00:10;;;;;;;33.03;18.60;;;;;;;-2.54;74.25;95920.59;4983627;28;20196;-87
2024/01/10 08:06:06;;;;;;;32.30;17.90;;;;;;;-2.15;73.20;95889.72;4893269;28;20260;-85
2024/01/10 08:18:14;;;;;;;28.27;17.10;;;;;;;-2.05;71.55;95806.72;4882358;29;20203;-87
2024/01/10 08:23:53;;;;;;;29.97;17.17;;;;;;;-2.05;71.31;95803.41;4931594;28;20224;-87
2024/01/10 08:26:20;;;;;;;32.13;17.17;;;;;;;-1.96;71.51;95800.31;4984203;28;20257;-87
2024/01/10 08:29:09;;;;;;;35.47;18.17;;;;;;;-2.01;71.01;95790.50;4988963;28;20572;-86
2024/01/10 08:31:59;;;;;;;33.33;17.80;;;;;;;-1.89;71.17;95789.72;4985121;28;20235;-86
2024/01/10 08:34:29;;;;;;;34.30;19.07;;;;;;;-1.57;70.30;95772.56;4992381;28;20211;-87
2024/01/10 08:37:04;;;;;;;30.57;17.53;;;;;;;-1.42;69.39;95718.56;4992132;28;20227;-87
2024/01/10 08:40:15;;;;;;;32.43;18.90;;;;;;;-1.60;69.00;95686.94;4960995;28;20279;-87
2024/01/10 08:42:52;;;;;;;32.50;18.80;;;;;;;-1.61;69.56;95714.81;4991747;28;20213;-89
2024/01/10 08:49:20;;;;;;;31.13;17.07;;;;;;;-1.53;68.92;95685.63;4857854;29;20287;-87
2024/01/10 08:52:13;;;;;;;34.10;18.57;;;;;;;-1.48;68.18;95650.78;4877272;29;20216;-87
2024/01/10 08:54:40;;;;;;;32.43;18.00;;;;;;;-1.31;67.85;95642.09;4879529;29;20289;-87
2024/01/10 08:57:10;;;;;;;30.63;18.73;;;;;;;-1.38;68.24;95665.34;4973619;28;20267;-87
2024/01/10 08:59:59;;;;;;;33.13;18.93;;;;;;;-1.39;68.35;95669.59;4974116;28;20219;-86
2024/01/10 09:05:13;;;;;;;34.63;20.20;;;;;;;-0.83;67.26;95658.16;4984048;28;20224;-86
2024/01/10 09:08:12;;;;;;;32.27;18.03;;;;;;;-0.86;66.87;95612.88;4989576;28;20578;-87
2024/01/10 09:17:04;;;;;;;33.07;18.40;;;;;;;-0.76;65.62;95552.38;4948724;28;20306;-88
2024/01/10 09:19:50;;;;;;;31.57;19.20;;;;;;;-0.71;65.91;95561.25;4965931;28;20205;-87
2024/01/10 09:22:35;;;;;;;;;;;;;;;;;;;;;
2024/01/10 09:25:29;;;;;;;33.73;19.57;;;;;;;-0.54;64.92;95514.53;4939496;28;20244;-87
2024/01/10 09:38:21;;;;;;;30.10;18.37;;;;;;;0.86;62.73;95434.75;4989629;28;20630;-86
2024/01/10 09:41:27;;;;;;;30.77;19.37;;;;;;;1.27;61.58;95384.09;4929566;29;20202;-87
2024/01/10 09:43:56;;;;;;;37.10;20.13;;;;;;;1.10;60.34;95295.94;4921803;29;20292;-87
2024/01/10 09:46:23;;;;;;;32.97;19.10;;;;;;;0.75;61.10;95303.88;4979393;28;20223;-87
2024/01/10 09:49:21;;;;;;;32.10;20.93;;;;;;;0.47;61.06;95289.25;4976530;28;20215;-87
2024/01/10 09:52:17;;;;;;;32.40;19.70;;;;;;;0.81;61.29;95348.16;4986694;28;20196;-86
2024/01/10 09:54:51;;;;;;;31.73;20.37;;;;;;;0.84;60.79;95294.72;4965658;28;20208;-87
2024/01/10 09:57:20;;;;;;;33.23;21.53;;;;;;;0.70;61.29;95313.56;4986528;28;20235;-87
2024/01/10 09:59:51;;;;;;;30.50;19.50;;;;;;;0.61;61.23;95315.09;4980391;28;20208;-86
2024/01/10 10:03:01;;;;;;;33.77;20.23;;;;;;;0.84;60.96;95325.13;5000423;28;20212;-86
2024/01/10 10:05:38;;;;;;;33.27;19.63;;;;;;;1.32;61.07;95333.81;4985845;28;20219;-86
2024/01/10 10:08:29;;;;;;;32.40;19.37;;;;;;;1.19;60.87;95338.25;4988926;28;20384;-86
2024/01/10 10:11:17;;;;;;;37.10;20.80;;;;;;;0.94;62.36;95382.56;4991165;28;20201;-87
2024/01/10 10:13:45;;;;;;;32.23;20.33;;;;;;;0.96;60.89;95329.22;4991058;28;20621;-86
2024/01/10 10:16:12;;;;;;;35.17;21.00;;;;;;;1.16;61.73;95358.78;4993532;28;20261;-87
2024/01/10 10:18:42;;;;;;;39.53;25.57;;;;;;;1.26;60.89;95331.78;4988491;28;20203;-87
2024/01/10 10:21:30;;;;;;;33.70;22.57;;;;;;;1.09;61.08;95331.53;4987259;28;20251;-88
2024/01/10 10:24:03;;;;;;;34.70;22.17;;;;;;;1.25;60.92;95325.09;4973809;28;20224;-86
2024/01/10 10:26:33;;;;;;;35.07;21.67;;;;;;;1.23;60.09;95271.16;4972890;28;20252;-87
2024/01/10 10:29:01;;;;;;;36.33;21.73;;;;;;;1.25;61.17;95309.88;4986364;28;20196;-86
2024/01/10 10:34:25;;;;;;;33.87;21.90;;;;;;;1.00;61.21;95343.22;4968270;28;20665;-87
2024/01/10 10:36:51;;;;;;;36.03;21.73;;;;;;;1.07;61.59;95353.69;4974246;28;20230;-87
2024/01/10 10:39:20;;;;;;;34.60;21.50;;;;;;;1.43;61.00;95347.34;4983015;28;20285;-87
2024/01/10 10:41:49;;;;;;;34.47;21.00;;;;;;;1.73;60.52;95327.03;4970468;28;20211;-86
2024/01/10 10:44:24;;;;;;;35.10;21.93;;;;;;;1.82;59.40;95264.53;4952080;29;20212;-86
2024/01/10 10:46:55;;;;;;;36.67;22.10;;;;;;;1.98;59.55;95249.59;4961583;28;20224;-86
2024/01/10 10:49:38;;;;;;;34.10;21.57;;;;;;;2.23;58.93;95244.00;4978233;28;20196;-86
2024/01/10 10:52:06;;;;;;;35.83;21.50;;;;;;;2.27;58.61;95211.53;4990260;28;20265;-86
2024/01/10 10:55:06;;;;;;;33.43;21.40;;;;;;;2.08;57.88;95171.72;4983350;28;20267;-86
2024/01/10 10:57:35;;;;;;;35.83;21.83;;;;;;;2.01;58.79;95208.72;4968837;28;20216;-86
2024/01/10 11:00:07;;;;;;;35.77;21.83;;;;;;;2.18;59.19;95237.72;4970680;28;20200;-86
2024/01/10 11:03:25;;;;;;;35.47;22.37;;;;;;;1.72;58.88;95196.81;4965265;28;20215;-86
2024/01/10 11:12:02;;;;;;;39.23;22.37;;;;;;;0.66;62.30;95378.88;4946525;28;20212;-86
2024/01/10 11:21:15;;;;;;;33.83;21.33;;;;;;;1.77;59.47;95270.00;4958162;28;20216;-86
2024/01/10 11:23:45;;;;;;;33.77;21.30;;;;;;;1.91;59.98;95279.00;4970437;28;20713;-86
2024/01/10 11:26:14;;;;;;;32.87;22.40;;;;;;;1.71;59.65;95237.53;4970481;28;20589;-86
2024/01/10 11:28:51;;;;;;;35.00;22.43;;;;;;;1.81;60.07;95290.84;4956310;28;20207;-86
2024/01/10 11:31:28;;;;;;;33.37;21.67;;;;;;;2.00;59.56;95279.00;4972203;28;20282;-86
2024/01/10 11:34:40;;;;;;;30.27;20.57;;;;;;;1.88;59.72;95269.09;4955769;28;20204;-86
2024/01/10 11:37:20;;;;;;;35.57;22.47;;;;;;;1.58;59.71;95263.13;4929710;28;20220;-87
2024/01/10 11:39:47;;;;;;;36.37;22.53;;;;;;;1.13;60.86;95292.34;4969571;28;20222;-85
2024/01/10 11:42:22;;;;;;;46.70;26.27;;;;;;;0.99;61.71;95349.22;4970572;28;20219;-85
2024/01/10 11:44:50;;;;;;;36.07;22.03;;;;;;;0.75;62.32;95367.22;4955857;28;20245;-86
2024/01/10 11:47:19;;;;;;;36.70;21.73;;;;;;;0.81;62.62;95417.38;4963791;28;20271;-87
2024/01/10 11:49:56;;;;;;;31.37;20.53;;;;;;;1.03;62.48;95432.50;4958043;28;20207;-85
2024/01/10 11:52:32;;;;;;;34.63;20.87;;;;;;;1.35;62.62;95452.72;4963504;28;20200;-85
2024/01/10 11:54:58;;;;;;;31.97;20.77;;;;;;;1.72;61.55;95409.97;4960647;28;20200;-86
2024/01/10 11:58:04;;;;;;;36.53;21.53;;;;;;;2.00;60.71;95359.44;4960365;28;20230;-86
2024/01/10 12:00:45;;;;;;;26.73;17.27;;;;;;;2.40;69.29;95877.66;4966706;28;20228;-85
2024/01/10 12:06:39;;;;;;;29.87;19.03;;;;;;;3.22;70.10;95944.06;4871431;28;20258;-85
2024/01/10 12:09:25;;;;;;;30.63;20.53;;;;;;;2.76;63.38;95515.53;4973221;28;20203;-85
2024/01/10 13:47:56;;;;;;;30.30;19.83;;;;;;;2.15;61.05;95335.25;4830346;29;20221;-85
2024/01/10 14:04:57;;;;;;;39.80;21.37;;;;;;;1.42;62.23;95381.22;4744749;30;20220;-86
2024/01/10 14:08:21;;;;;;;35.40;20.20;;;;;;;0.56;64.51;95471.72;4879627;29;20222;-86
2024/01/10 14:10:47;;;;;;;32.70;20.87;;;;;;;0.18;66.19;95570.84;4899859;29;20209;-86
2024/01/10 14:27:01;;;;;;;33.90;20.27;;;;;;;0.02;67.97;95711.25;4750242;30;20270;-87
2024/01/10 14:29:36;;;;;;;32.03;20.27;;;;;;;-0.11;68.61;95739.16;4734894;29;20239;-86
2024/01/10 14:34:47;;;;;;;35.97;21.40;;;;;;;-0.55;69.96;95813.00;4867998;29;20211;-86
2024/01/10 14:37:17;;;;;;;39.27;24.03;;;;;;;-0.46;70.14;95845.28;4924599;29;20228;-87
2024/01/10 14:39:44;;;;;;;84.77;49.10;;;;;;;-0.25;69.74;95836.25;4929639;29;20288;-87
2024/01/10 14:42:32;;;;;;;40.37;26.03;;;;;;;-0.04;68.99;95806.13;4930528;29;20221;-88
2024/01/10 14:45:22;;;;;;;38.30;22.33;;;;;;;-0.10;68.71;95776.19;4930948;29;20217;-87
2024/01/10 14:47:55;;;;;;;35.70;20.83;;;;;;;-0.53;69.87;95821.31;4927513;29;20284;-87
2024/01/10 15:00:50;;;;;;;34.63;21.37;;;;;;;-0.98;73.00;95959.09;4797870;29;20217;-88
2024/01/10 15:06:37;;;;;;;37.93;21.90;;;;;;;-1.06;73.51;95989.91;4886374;29;20226;-87
2024/01/10 15:16:21;;;;;;;35.60;22.17;;;;;;;-1.65;77.36;96115.53;4865839;29;20221;-86
2024/01/10 15:19:40;;;;;;;42.13;22.63;;;;;;;-1.75;77.46;96116.97;4929461;29;20688;-89
2024/01/10 15:22:12;;;;;;;37.77;22.60;;;;;;;-1.75;78.74;96150.59;4926965;29;20208;-86
2024/01/10 15:25:05;;;;;;;38.33;21.87;;;;;;;-1.77;78.75;96166.72;4931928;29;20290;-86
2024/01/10 15:33:28;;;;;;;38.57;21.77;;;;;;;-1.88;80.08;96206.88;4931454;29;20216;-86
2024/01/10 15:36:19;;;;;;;39.57;22.13;;;;;;;-1.95;80.88;96223.28;4933880;29;20224;-86
2024/01/10 15:38:46;;;;;;;41.00;22.90;;;;;;;-2.20;82.16;96251.53;4876528;29;20244;-87
2024/01/10 15:41:31;;;;;;;41.13;23.10;;;;;;;-2.14;82.57;96266.34;4936584;29;20285;-87
2024/01/10 15:44:00;;;;;;;38.73;22.20;;;;;;;-2.00;82.37;96268.94;4934619;29;20652;-86
2024/01/10 15:46:27;;;;;;;43.30;22.40;;;;;;;-1.73;80.98;96238.03;4934422;29;20229;-85
2024/01/10 15:49:10;;;;;;;39.00;21.73;;;;;;;-1.55;80.14;96222.66;4918945;29;20318;-86
2024/01/10 15:51:36;;;;;;;39.83;21.83;;;;;;;-1.58;79.83;96211.94;4915166;29;20206;-85
2024/01/10 15:54:03;;;;;;;52.07;27.50;;;;;;;-1.66;80.06;96212.34;4923237;29;20734;-86
2024/01/10 15:56:30;;;;;;;42.00;24.43;;;;;;;-1.71;80.57;96224.41;4931363;29;20225;-86
2024/01/10 15:59:12;;;;;;;36.50;21.57;;;;;;;-2.04;82.44;96267.47;4934087;29;20232;-86
2024/01/10 16:01:44;;;;;;;40.17;21.50;;;;;;;-1.84;82.40;96274.75;4934137;29;20260;-85
2024/01/10 16:04:12;;;;;;;60.40;35.27;;;;;;;-1.67;81.81;96260.41;4934200;29;20208;-86
2024/01/10 16:06:59;;;;;;;54.53;30.87;;;;;;;-1.59;81.09;96251.50;4933827;29;20248;-86
2024/01/10 16:09:54;;;;;;;45.33;23.63;;;;;;;-1.52;80.76;96234.28;4895089;29;20668;-85
2024/01/10 16:12:25;;;;;;;40.70;21.97;;;;;;;-1.42;79.83;96221.06;4929312;29;20243;-87
2024/01/10 16:15:13;;;;;;;41.63;22.70;;;;;;;-1.37;79.74;96214.94;4934251;29;20205;-86
2024/01/10 16:17:40;;;;;;;41.13;23.57;;;;;;;-1.25;79.33;96196.53;4930215;29;20292;-86
2024/01/10 16:20:09;;;;;;;38.97;20.53;;;;;;;-1.26;78.71;96178.03;4934559;29;20217;-86
2024/01/10 16:22:48;;;;;;;34.67;20.13;;;;;;;-1.50;79.17;96197.94;4934131;29;20243;-86
2024/01/10 16:25:14;;;;;;;37.03;20.67;;;;;;;-1.46;79.65;96206.97;4930357;29;20322;-86
2024/01/10 16:30:31;;;;;;;36.43;21.10;;;;;;;-1.23;78.69;96187.16;4926125;29;20198;-87
2024/01/10 16:34:09;;;;;;;38.17;20.47;;;;;;;-1.20;78.59;96171.81;4941374;29;20194;-87
2024/01/10 16:36:37;;;;;;;38.97;19.60;;;;;;;-1.13;77.94;96157.91;4840470;29;20224;-87
2024/01/10 16:39:18;;;;;;;39.13;22.33;;;;;;;-1.12;78.19;96144.38;4865329;29;20245;-87
2024/01/10 16:41:45;;;;;;;38.97;21.43;;;;;;;-1.27;78.98;96171.38;4931930;29;20297;-87
2024/01/10 16:44:11;;;;;;;47.83;26.87;;;;;;;-1.48;80.27;96213.00;4935665;29;20206;-86
2024/01/10 16:46:43;;;;;;;44.20;23.70;;;;;;;-1.53;81.19;96250.31;4936642;29;20233;-86
2024/01/10 16:49:11;;;;;;;37.03;21.93;;;;;;;-1.70;82.16;96276.50;4936471;29;20198;-87
2024/01/10 16:51:41;;;;;;;42.60;25.07;;;;;;;-1.66;82.43;96290.59;4936718;29;20565;-86
2024/01/10 16:54:08;;;;;;;42.77;25.47;;;;;;;-1.53;82.80;96283.16;4936826;29;20197;-86
2024/01/10 16:56:37;;;;;;;45.03;23.97;;;;;;;-1.47;82.58;96282.81;4935972;29;20225;-86
2024/01/10 16:59:03;;;;;;;47.77;22.97;;;;;;;-1.49;82.36;96284.63;4930051;29;20229;-86
2024/01/10 17:01:36;;;;;;;38.70;21.37;;;;;;;-1.64;83.25;96308.19;4923565;29;20209;-86
2024/01/10 17:04:08;;;;;;;34.43;21.13;;;;;;;-1.74;84.24;96333.13;4925721;29;20201;-87
2024/01/10 17:06:42;;;;;;;37.07;19.37;;;;;;;-1.82;85.73;96357.97;4933092;29;20225;-86
2024/01/10 17:09:29;;;;;;;37.43;20.13;;;;;;;-1.83;85.60;96347.06;4924542;29;20197;-86
2024/01/10 17:11:56;;;;;;;37.27;20.93;;;;;;;-2.00;86.92;96364.81;4933376;29;20844;-85
2024/01/10 17:14:22;;;;;;;36.90;20.47;;;;;;;-1.82;86.50;96366.34;4927151;29;20233;-86
2024/01/10 17:16:49;;;;;;;41.37;21.00;;;;;;;-1.73;85.91;96355.75;4927698;29;20226;-86
2024/01/10 17:19:34;;;;;;;43.20;26.07;;;;;;;-1.79;85.79;96348.53;4937436;29;20272;-86
2024/01/10 17:26:08;;;;;;;43.27;24.17;;;;;;;-1.90;87.22;96368.44;4873462;29;20227;-89
2024/01/10 17:29:04;;;;;;;42.77;22.77;;;;;;;-1.91;88.20;96396.28;4835230;29;20196;-90
2024/01/10 17:34:27;;;;;;;43.83;25.03;;;;;;;-2.13;90.00;96424.38;4926006;29;20644;-90
2024/01/10 17:37:25;;;;;;;41.13;23.90;;;;;;;-2.01;90.19;96438.84;4932043;29;20212;-86
2024/01/10 17:47:09;;;;;;;39.97;22.40;;;;;;;-1.98;90.16;96435.38;4903119;29;20241;-88
2024/01/10 17:50:25;;;;;;;46.20;22.57;;;;;;;-1.83;90.27;96439.63;4932482;29;20240;-89
2024/01/10 17:56:55;;;;;;;;;;;;;;;;;;;;;
2024/01/10 17:59:45;;;;;;;46.90;22.57;;;;;;;-1.37;85.31;96338.69;4913464;29;20230;-87
2024/01/10 18:06:18;;;;;;;48.50;22.57;;;;;;;-1.38;84.32;96322.72;4843104;29;20738;-88
2024/01/10 18:21:41;;;;;;;43.00;21.27;;;;;;;-1.58;84.57;96313.72;4746570;30;20231;-86
2024/01/10 18:24:08;;;;;;;41.10;20.53;;;;;;;-1.62;85.01;96319.84;4804629;29;20764;-86
2024/01/10 18:27:29;;;;;;;41.20;21.37;;;;;;;-1.66;85.51;96341.09;4817182;29;20318;-85
2024/01/10 18:37:25;;;;;;;38.57;20.70;;;;;;;-1.71;86.21;96365.75;4794536;29;20750;-86
2024/01/10 18:40:52;;;;;;;;;;;;;;;;;;;;;
2024/01/10 18:44:05;;;;;;;40.73;21.57;;;;;;;-1.84;88.47;96412.75;4756995;29;20711;-86
2024/01/10 18:51:05;;;;;;;42.97;21.70;;;;;;;-1.79;88.66;96419.19;4768272;29;20218;-86
2024/01/10 19:00:34;;;;;;;41.67;23.67;;;;;;;-1.75;88.77;96424.91;4834204;29;20455;-86
2024/01/10 20:22:10;;;;;;;39.87;21.00;;;;;;;-1.37;87.41;96417.81;1235419;23;20235;-87
2024/01/10 20:31:36;;;;;;;38.83;21.17;;;;;;;-1.63;87.61;96411.63;4925577;29;20281;-87
2024/01/10 20:34:07;;;;;;;36.67;20.77;;;;;;;-1.46;86.87;96406.47;4925157;29;20205;-88
2024/01/10 20:36:36;;;;;;;36.03;20.27;;;;;;;-1.28;86.22;96393.72;4932924;28;20220;-87
2024/01/10 20:39:14;;;;;;;39.57;20.87;;;;;;;-1.16;85.24;96373.69;4965467;28;20213;-88
2024/01/10 20:41:45;;;;;;;54.70;31.33;;;;;;;-1.13;87.33;96420.66;4960870;28;20729;-88
2024/01/10 20:51:08;;;;;;;42.23;22.20;;;;;;;-1.35;86.09;96385.69;4879016;29;20381;-87
2024/01/10 20:53:35;;;;;;;45.20;23.37;;;;;;;-1.41;86.42;96391.88;4873717;29;20338;-88
2024/01/10 20:56:10;;;;;;;44.07;22.73;;;;;;;-1.30;85.68;96387.94;4958943;28;20234;-87
2024/01/10 20:58:47;;;;;;;38.27;22.13;;;;;;;-1.37;86.16;96387.50;4976939;28;20206;-89
2024/01/10 21:01:14;;;;;;;45.37;22.93;;;;;;;-1.54;87.06;96407.78;4975210;28;20207;-84
2024/01/10 21:03:40;;;;;;;42.03;22.63;;;;;;;-1.52;87.42;96408.50;4965517;28;20212;-84
2024/01/10 21:07:13;;;;;;;43.73;23.63;;;;;;;-1.45;86.91;96405.56;4947253;29;20221;-85
2024/01/10 21:10:23;;;;;;;35.40;20.27;;;;;;;-1.27;85.44;96378.50;4948158;29;20227;-85
2024/01/10 21:13:02;;;;;;;45.60;21.40;;;;;;;-1.14;84.59;96353.34;4937839;29;20728;-86
2024/01/10 21:18:14;;;;;;;39.67;22.50;;;;;;;-1.49;83.84;96313.19;4934752;29;20220;-87
2024/01/10 21:20:49;;;;;;;53.47;31.47;;;;;;;-1.51;84.17;96332.66;4940968;29;20239;-87
2024/01/10 21:23:48;;;;;;;38.77;21.87;;;;;;;-1.52;85.35;96358.81;4949909;29;20271;-87
2024/01/10 21:26:18;;;;;;;41.47;23.67;;;;;;;-1.46;86.01;96376.16;5096000;23;20240;-87
2024/01/10 21:28:44;;;;;;;36.80;22.03;;;;;;;-1.41;86.29;96391.88;4992448;28;20294;-87
2024/01/10 21:46:40;;;;;;;38.77;21.27;;;;;;;-1.78;85.47;96367.81;4943293;29;20231;-87
2024/01/10 22:09:03;;;;;;;;;;;;;;;;;;;;;
2024/01/10 22:11:59;;;;;;;34.67;19.37;;;;;;;-1.91;88.70;96422.34;4850644;29;20235;-87
2024/01/10 22:14:30;;;;;;;36.70;19.30;;;;;;;-1.78;88.19;96410.72;4953143;29;20273;-87
2024/01/10 22:16:57;;;;;;;38.30;20.90;;;;;;;-1.61;87.49;96392.16;4953238;29;21134;-88
2024/01/10 22:19:35;;;;;;;36.50;19.93;;;;;;;-1.58;86.32;96368.47;4953296;28;20221;-87
2024/01/10 22:22:15;;;;;;;39.33;20.60;;;;;;;-1.57;85.27;96339.78;4944835;28;20261;-88
2024/01/10 22:25:02;;;;;;;37.27;20.90;;;;;;;-1.59;85.70;96347.44;4942425;29;20834;-87
2024/01/10 22:31:31;;;;;;;38.20;20.23;;;;;;;-1.85;87.12;96378.31;4900368;29;20208;-87
2024/01/10 22:33:58;;;;;;;32.67;18.87;;;;;;;-1.93;88.00;96398.91;4943994;29;20236;-88
2024/01/10 22:36:26;;;;;;;35.60;19.57;;;;;;;-1.80;88.06;96406.66;4953121;29;20221;-87
2024/01/10 22:39:13;;;;;;;37.53;19.87;;;;;;;-1.77;87.63;96394.69;4953199;29;20193;-86
2024/01/10 22:41:52;;;;;;;38.37;19.60;;;;;;;-1.78;87.83;96393.06;4922950;29;20875;-88
2024/01/10 22:44:19;;;;;;;34.93;19.70;;;;;;;-1.70;87.35;96384.25;4952790;29;20574;-88
2024/01/10 22:47:37;;;;;;;31.60;19.13;;;;;;;-1.70;86.95;96380.00;4952094;28;20240;-87
2024/01/10 22:50:15;;;;;;;36.73;20.03;;;;;;;-1.77;87.04;96381.25;4934267;29;20204;-88
2024/01/10 22:53:18;;;;;;;37.30;20.60;;;;;;;-1.81;87.66;96400.78;4952697;29;20204;-86
2024/01/10 22:56:40;;;;;;;35.03;19.70;;;;;;;-1.88;87.82;96403.69;4949376;29;20261;-87
2024/01/10 22:59:16;;;;;;;40.07;19.67;;;;;;;-1.77;87.50;96398.91;4947432;29;20543;-86
2024/01/10 23:02:12;;;;;;;35.30;20.33;;;;;;;-1.84;87.84;96410.22;4951902;29;20215;-87
2024/01/10 23:05:29;;;;;;;35.87;19.10;;;;;;;-1.77;87.67;96401.44;4891855;29;20215;-87
2024/01/10 23:08:45;;;;;;;36.53;20.30;;;;;;;-1.86;88.13;96412.00;4864887;29;20213;-87
2024/01/10 23:11:17;;;;;;;41.10;20.57;;;;;;;-1.88;88.34;96407.03;4806950;29;20748;-87
2024/01/10 23:14:21;;;;;;;40.27;21.43;;;;;;;-1.76;87.71;96401.38;4812088;29;20202;-88
2024/01/10 23:20:18;;;;;;;37.63;20.40;;;;;;;-1.56;86.20;96352.34;4778145;29;21002;-86